Hlavní strana
METAR-TAF:

METAR-TAF

Letiště :

Letiště Longyearbyen

Longyearbyen, Norsko

zeměpisná šířka: 78-15N, zeměpisná délka: 015-28E, výška: 2 m

Aktuální stav počasí

Zpráva byla vytvořena před 26 minutami, v 22:20 UTC
Západní vítr 12 kt
Teplota -18°C
Vlhkost vzduchu 65%
Tlak 988 hPa
Viditelnost 10 km a více
Skoro jasno ve výšce 2300 ft

METAR: ENSB 182220Z 28012KT 9999 FEW023 M18/M23 Q0988 RMK WIND 1400FT 28010KT

Čas: 23:46 (22:46 UTC)

Předpověď počasí

Předpověď platná od 18 v 18 UTC do 19 v 18 UTC
Severoseverozápadní vítr 12 kt
Viditelnost 10 km a více
Polojasno ve výšce 2000 ft
Změna
od 18 v 19 UTC do 18 v 21 UTC
Západní vítr 15 kt
Dočasný
od 19 v 00 UTC do 19 v 18 UTC
Západoseverozápadní vítr 15 kt s nárazy do 25 kt
Viditelnost: 4000 m
ve výšce 1200 ft
slabé sněhové přeháňky

TAF: ENSB 1818/1918 34012KT 9999 SCT020 BECMG 1819/1821 28015KT TEMPO 1900/1918 30015G25KT 4000 -SHSN VV012

Stav a předpovědi počasí z více než 4 000 letišť (zprávy METAR a TAF).

Červené a žluté tečky na mapě představují dostupné meteorologické stanice.

Když kurzor umístíte na tečku, zobrazí se název stanice.

Pak kliknutím zobrazíte stav a předpověď počasí.

Chcete-li změnit mapu, kliknutím na zelené tlačítko se znaménkem +mapu přiblížíte, kliknutím na zelené tlačítko se znaménkem – mapu oddálíte a kliknutím na zelené šipky přejdete na sousední mapy.


METAR-TAF: